sensor_id;sensor_type;location;lat;lon;timestamp;P1;durP1;ratioP1;P2;durP2;ratioP2
21392;SDS011;10857;52.228;21.026;2022-11-12T00:00:15;35.70;;;21.97;;
21392;SDS011;10857;52.228;21.026;2022-11-12T00:03:01;40.53;;;21.90;;
21392;SDS011;10857;52.228;21.026;2022-11-12T00:05:47;38.50;;;22.03;;
21392;SDS011;10857;52.228;21.026;2022-11-12T00:08:34;34.93;;;19.87;;
21392;SDS011;10857;52.228;21.026;2022-11-12T00:11:20;33.53;;;20.07;;
21392;SDS011;10857;52.228;21.026;2022-11-12T00:14:06;35.57;;;20.53;;
21392;SDS011;10857;52.228;21.026;2022-11-12T00:16:52;37.63;;;20.03;;
21392;SDS011;10857;52.228;21.026;2022-11-12T00:19:38;31.70;;;20.27;;
21392;SDS011;10857;52.228;21.026;2022-11-12T00:22:23;38.67;;;20.80;;
21392;SDS011;10857;52.228;21.026;2022-11-12T00:25:10;34.43;;;19.30;;
21392;SDS011;10857;52.228;21.026;2022-11-12T00:28:29;38.57;;;19.80;;
21392;SDS011;10857;52.228;21.026;2022-11-12T00:31:09;35.67;;;20.03;;
21392;SDS011;10857;52.228;21.026;2022-11-12T00:33:55;31.23;;;19.43;;
21392;SDS011;10857;52.228;21.026;2022-11-12T00:36:41;38.37;;;18.90;;
21392;SDS011;10857;52.228;21.026;2022-11-12T00:39:27;32.23;;;19.40;;
21392;SDS011;10857;52.228;21.026;2022-11-12T00:42:13;32.63;;;19.80;;
21392;SDS011;10857;52.228;21.026;2022-11-12T00:44:59;32.80;;;18.63;;
21392;SDS011;10857;52.228;21.026;2022-11-12T00:47:45;34.83;;;19.57;;
21392;SDS011;10857;52.228;21.026;2022-11-12T00:50:31;30.50;;;18.70;;
21392;SDS011;10857;52.228;21.026;2022-11-12T00:53:17;30.77;;;18.33;;
21392;SDS011;10857;52.228;21.026;2022-11-12T00:56:03;31.17;;;18.90;;
21392;SDS011;10857;52.228;21.026;2022-11-12T00:58:50;36.47;;;19.20;;
21392;SDS011;10857;52.228;21.026;2022-11-12T01:01:35;31.87;;;18.03;;
21392;SDS011;10857;52.228;21.026;2022-11-12T01:04:23;30.33;;;18.17;;
21392;SDS011;10857;52.228;21.026;2022-11-12T01:07:09;33.40;;;18.80;;
21392;SDS011;10857;52.228;21.026;2022-11-12T01:09:55;32.80;;;19.03;;
21392;SDS011;10857;52.228;21.026;2022-11-12T01:12:40;30.60;;;18.83;;
21392;SDS011;10857;52.228;21.026;2022-11-12T01:15:26;30.47;;;17.80;;
21392;SDS011;10857;52.228;21.026;2022-11-12T01:18:12;31.17;;;18.83;;
21392;SDS011;10857;52.228;21.026;2022-11-12T01:20:59;30.13;;;18.47;;
21392;SDS011;10857;52.228;21.026;2022-11-12T01:23:45;29.87;;;18.30;;
21392;SDS011;10857;52.228;21.026;2022-11-12T01:26:31;31.67;;;17.97;;
21392;SDS011;10857;52.228;21.026;2022-11-12T01:29:17;30.07;;;18.27;;
21392;SDS011;10857;52.228;21.026;2022-11-12T01:32:03;29.80;;;18.03;;
21392;SDS011;10857;52.228;21.026;2022-11-12T01:34:49;29.20;;;18.57;;
21392;SDS011;10857;52.228;21.026;2022-11-12T01:37:35;35.10;;;17.97;;
21392;SDS011;10857;52.228;21.026;2022-11-12T01:40:21;32.13;;;18.33;;
21392;SDS011;10857;52.228;21.026;2022-11-12T01:43:10;30.70;;;18.50;;
21392;SDS011;10857;52.228;21.026;2022-11-12T01:45:57;37.67;;;18.80;;
21392;SDS011;10857;52.228;21.026;2022-11-12T01:49:04;34.57;;;18.90;;
21392;SDS011;10857;52.228;21.026;2022-11-12T01:51:50;28.80;;;18.17;;
21392;SDS011;10857;52.228;21.026;2022-11-12T01:54:39;30.00;;;17.80;;
21392;SDS011;10857;52.228;21.026;2022-11-12T01:57:26;30.97;;;18.80;;
21392;SDS011;10857;52.228;21.026;2022-11-12T02:00:18;31.80;;;17.87;;
21392;SDS011;10857;52.228;21.026;2022-11-12T02:03:05;31.03;;;18.13;;
21392;SDS011;10857;52.228;21.026;2022-11-12T02:05:58;29.57;;;18.30;;
21392;SDS011;10857;52.228;21.026;2022-11-12T02:08:44;31.83;;;18.60;;
21392;SDS011;10857;52.228;21.026;2022-11-12T02:11:30;31.07;;;18.57;;
21392;SDS011;10857;52.228;21.026;2022-11-12T02:14:16;31.73;;;17.83;;
21392;SDS011;10857;52.228;21.026;2022-11-12T02:17:02;33.17;;;18.30;;
21392;SDS011;10857;52.228;21.026;2022-11-12T02:19:50;34.37;;;19.47;;
21392;SDS011;10857;52.228;21.026;2022-11-12T02:22:36;33.63;;;19.83;;
21392;SDS011;10857;52.228;21.026;2022-11-12T02:25:22;32.70;;;19.47;;
21392;SDS011;10857;52.228;21.026;2022-11-12T02:28:08;33.90;;;19.87;;
21392;SDS011;10857;52.228;21.026;2022-11-12T02:30:54;33.33;;;19.70;;
21392;SDS011;10857;52.228;21.026;2022-11-12T02:33:40;31.17;;;19.93;;
21392;SDS011;10857;52.228;21.026;2022-11-12T02:36:26;33.57;;;20.90;;
21392;SDS011;10857;52.228;21.026;2022-11-12T02:39:12;33.33;;;20.17;;
21392;SDS011;10857;52.228;21.026;2022-11-12T02:41:58;35.87;;;20.40;;
21392;SDS011;10857;52.228;21.026;2022-11-12T02:44:44;34.30;;;20.63;;
21392;SDS011;10857;52.228;21.026;2022-11-12T02:47:30;32.03;;;20.10;;
21392;SDS011;10857;52.228;21.026;2022-11-12T02:50:16;33.33;;;20.60;;
21392;SDS011;10857;52.228;21.026;2022-11-12T02:53:02;32.73;;;19.13;;
21392;SDS011;10857;52.228;21.026;2022-11-12T02:55:47;33.87;;;19.80;;
21392;SDS011;10857;52.228;21.026;2022-11-12T02:58:34;35.47;;;21.30;;
21392;SDS011;10857;52.228;21.026;2022-11-12T03:01:20;36.17;;;20.83;;
21392;SDS011;10857;52.228;21.026;2022-11-12T03:04:06;31.77;;;19.90;;
21392;SDS011;10857;52.228;21.026;2022-11-12T03:06:51;32.13;;;20.53;;
21392;SDS011;10857;52.228;21.026;2022-11-12T03:09:37;36.53;;;21.77;;
21392;SDS011;10857;52.228;21.026;2022-11-12T03:12:23;36.63;;;21.23;;
21392;SDS011;10857;52.228;21.026;2022-11-12T03:15:09;36.73;;;21.47;;
21392;SDS011;10857;52.228;21.026;2022-11-12T03:17:58;33.00;;;20.80;;
21392;SDS011;10857;52.228;21.026;2022-11-12T03:20:44;34.00;;;21.73;;
21392;SDS011;10857;52.228;21.026;2022-11-12T03:23:30;36.60;;;20.90;;
21392;SDS011;10857;52.228;21.026;2022-11-12T03:26:16;33.57;;;21.20;;
21392;SDS011;10857;52.228;21.026;2022-11-12T03:29:02;35.37;;;20.50;;
21392;SDS011;10857;52.228;21.026;2022-11-12T03:31:48;34.17;;;20.40;;
21392;SDS011;10857;52.228;21.026;2022-11-12T03:34:33;35.70;;;20.77;;
21392;SDS011;10857;52.228;21.026;2022-11-12T03:37:19;33.20;;;19.90;;
21392;SDS011;10857;52.228;21.026;2022-11-12T03:40:06;36.83;;;20.33;;
21392;SDS011;10857;52.228;21.026;2022-11-12T03:42:52;36.83;;;20.50;;
21392;SDS011;10857;52.228;21.026;2022-11-12T03:45:38;34.33;;;20.83;;
21392;SDS011;10857;52.228;21.026;2022-11-12T03:48:23;37.13;;;20.87;;
21392;SDS011;10857;52.228;21.026;2022-11-12T03:51:10;34.80;;;20.37;;
21392;SDS011;10857;52.228;21.026;2022-11-12T03:54:00;34.33;;;19.97;;
21392;SDS011;10857;52.228;21.026;2022-11-12T03:56:46;33.67;;;19.83;;
21392;SDS011;10857;52.228;21.026;2022-11-12T03:59:32;33.50;;;18.90;;
21392;SDS011;10857;52.228;21.026;2022-11-12T04:02:18;32.63;;;18.83;;
21392;SDS011;10857;52.228;21.026;2022-11-12T04:05:04;33.07;;;18.53;;
21392;SDS011;10857;52.228;21.026;2022-11-12T04:08:12;33.27;;;18.43;;
21392;SDS011;10857;52.228;21.026;2022-11-12T04:11:17;32.27;;;18.77;;
21392;SDS011;10857;52.228;21.026;2022-11-12T04:14:04;35.43;;;19.13;;
21392;SDS011;10857;52.228;21.026;2022-11-12T04:16:50;33.53;;;18.40;;
21392;SDS011;10857;52.228;21.026;2022-11-12T04:19:54;33.83;;;18.80;;
21392;SDS011;10857;52.228;21.026;2022-11-12T04:22:58;34.77;;;18.03;;
21392;SDS011;10857;52.228;21.026;2022-11-12T04:25:44;30.67;;;18.60;;
21392;SDS011;10857;52.228;21.026;2022-11-12T04:28:49;32.13;;;18.07;;
21392;SDS011;10857;52.228;21.026;2022-11-12T04:31:53;34.43;;;18.20;;
21392;SDS011;10857;52.228;21.026;2022-11-12T04:34:39;30.33;;;18.20;;
21392;SDS011;10857;52.228;21.026;2022-11-12T04:37:26;31.23;;;17.27;;
21392;SDS011;10857;52.228;21.026;2022-11-12T04:40:12;36.00;;;18.00;;
21392;SDS011;10857;52.228;21.026;2022-11-12T04:43:17;32.67;;;16.83;;
21392;SDS011;10857;52.228;21.026;2022-11-12T04:46:21;31.27;;;17.40;;
21392;SDS011;10857;52.228;21.026;2022-11-12T04:49:08;29.43;;;17.57;;
21392;SDS011;10857;52.228;21.026;2022-11-12T04:51:53;33.73;;;17.43;;
21392;SDS011;10857;52.228;21.026;2022-11-12T04:54:48;30.90;;;17.93;;
21392;SDS011;10857;52.228;21.026;2022-11-12T04:57:34;31.83;;;17.50;;
21392;SDS011;10857;52.228;21.026;2022-11-12T05:00:20;33.83;;;18.93;;
21392;SDS011;10857;52.228;21.026;2022-11-12T05:03:06;40.37;;;19.03;;
21392;SDS011;10857;52.228;21.026;2022-11-12T05:05:52;33.20;;;19.37;;
21392;SDS011;10857;52.228;21.026;2022-11-12T05:08:37;39.77;;;20.20;;
21392;SDS011;10857;52.228;21.026;2022-11-12T05:11:23;45.27;;;20.40;;
21392;SDS011;10857;52.228;21.026;2022-11-12T05:14:09;39.47;;;21.27;;
21392;SDS011;10857;52.228;21.026;2022-11-12T05:16:55;41.30;;;21.07;;
21392;SDS011;10857;52.228;21.026;2022-11-12T05:19:42;39.90;;;20.40;;
21392;SDS011;10857;52.228;21.026;2022-11-12T05:22:27;39.93;;;22.33;;
21392;SDS011;10857;52.228;21.026;2022-11-12T05:25:27;37.30;;;21.63;;
21392;SDS011;10857;52.228;21.026;2022-11-12T05:28:13;45.40;;;24.50;;
21392;SDS011;10857;52.228;21.026;2022-11-12T05:30:59;42.50;;;24.90;;
21392;SDS011;10857;52.228;21.026;2022-11-12T05:33:45;44.40;;;24.27;;
21392;SDS011;10857;52.228;21.026;2022-11-12T05:36:31;46.20;;;24.57;;
21392;SDS011;10857;52.228;21.026;2022-11-12T05:39:17;47.57;;;24.80;;
21392;SDS011;10857;52.228;21.026;2022-11-12T05:42:04;43.57;;;25.10;;
21392;SDS011;10857;52.228;21.026;2022-11-12T05:44:58;44.20;;;26.37;;
21392;SDS011;10857;52.228;21.026;2022-11-12T05:47:44;45.93;;;26.03;;
21392;SDS011;10857;52.228;21.026;2022-11-12T05:50:30;49.53;;;25.87;;
21392;SDS011;10857;52.228;21.026;2022-11-12T05:53:29;48.17;;;25.67;;
21392;SDS011;10857;52.228;21.026;2022-11-12T05:56:15;45.07;;;25.10;;
21392;SDS011;10857;52.228;21.026;2022-11-12T05:59:02;47.00;;;24.60;;
21392;SDS011;10857;52.228;21.026;2022-11-12T06:01:48;46.00;;;24.73;;
21392;SDS011;10857;52.228;21.026;2022-11-12T06:04:34;44.60;;;24.23;;
21392;SDS011;10857;52.228;21.026;2022-11-12T06:07:20;46.27;;;23.97;;
21392;SDS011;10857;52.228;21.026;2022-11-12T06:10:06;49.73;;;25.93;;
21392;SDS011;10857;52.228;21.026;2022-11-12T06:12:52;47.67;;;25.30;;
21392;SDS011;10857;52.228;21.026;2022-11-12T06:15:38;44.47;;;25.20;;
21392;SDS011;10857;52.228;21.026;2022-11-12T06:18:24;46.93;;;24.73;;
21392;SDS011;10857;52.228;21.026;2022-11-12T06:21:10;51.60;;;26.20;;
21392;SDS011;10857;52.228;21.026;2022-11-12T06:24:06;44.53;;;25.60;;
21392;SDS011;10857;52.228;21.026;2022-11-12T06:26:52;43.37;;;25.90;;
21392;SDS011;10857;52.228;21.026;2022-11-12T06:29:38;46.93;;;25.93;;
21392;SDS011;10857;52.228;21.026;2022-11-12T06:32:24;47.70;;;26.27;;
21392;SDS011;10857;52.228;21.026;2022-11-12T06:35:10;45.40;;;25.80;;
21392;SDS011;10857;52.228;21.026;2022-11-12T06:37:56;54.00;;;27.60;;
21392;SDS011;10857;52.228;21.026;2022-11-12T06:40:41;48.63;;;28.93;;
21392;SDS011;10857;52.228;21.026;2022-11-12T06:43:28;52.87;;;29.13;;
21392;SDS011;10857;52.228;21.026;2022-11-12T06:46:15;53.20;;;29.27;;
21392;SDS011;10857;52.228;21.026;2022-11-12T06:49:01;53.50;;;30.07;;
21392;SDS011;10857;52.228;21.026;2022-11-12T06:51:49;55.90;;;31.40;;
21392;SDS011;10857;52.228;21.026;2022-11-12T06:54:35;58.23;;;32.67;;
21392;SDS011;10857;52.228;21.026;2022-11-12T06:57:20;61.20;;;32.10;;
21392;SDS011;10857;52.228;21.026;2022-11-12T07:00:07;61.17;;;33.10;;
21392;SDS011;10857;52.228;21.026;2022-11-12T07:02:55;63.83;;;34.03;;
21392;SDS011;10857;52.228;21.026;2022-11-12T07:05:41;62.60;;;33.00;;
21392;SDS011;10857;52.228;21.026;2022-11-12T07:08:27;62.10;;;33.73;;
21392;SDS011;10857;52.228;21.026;2022-11-12T07:11:14;62.83;;;32.93;;
21392;SDS011;10857;52.228;21.026;2022-11-12T07:13:59;61.20;;;31.37;;
21392;SDS011;10857;52.228;21.026;2022-11-12T07:16:45;64.57;;;34.80;;
21392;SDS011;10857;52.228;21.026;2022-11-12T07:19:31;65.67;;;32.73;;
21392;SDS011;10857;52.228;21.026;2022-11-12T07:22:17;58.83;;;31.03;;
21392;SDS011;10857;52.228;21.026;2022-11-12T07:25:03;59.57;;;30.73;;
21392;SDS011;10857;52.228;21.026;2022-11-12T07:27:49;60.37;;;30.80;;
21392;SDS011;10857;52.228;21.026;2022-11-12T07:30:35;61.93;;;30.47;;
21392;SDS011;10857;52.228;21.026;2022-11-12T07:33:21;57.97;;;30.07;;
21392;SDS011;10857;52.228;21.026;2022-11-12T07:36:08;58.70;;;30.87;;
21392;SDS011;10857;52.228;21.026;2022-11-12T07:38:54;59.10;;;31.67;;
21392;SDS011;10857;52.228;21.026;2022-11-12T07:41:40;59.97;;;31.60;;
21392;SDS011;10857;52.228;21.026;2022-11-12T07:44:26;57.70;;;31.77;;
21392;SDS011;10857;52.228;21.026;2022-11-12T07:47:12;59.80;;;30.30;;
21392;SDS011;10857;52.228;21.026;2022-11-12T07:49:57;61.83;;;32.37;;
21392;SDS011;10857;52.228;21.026;2022-11-12T07:52:43;66.13;;;31.93;;
21392;SDS011;10857;52.228;21.026;2022-11-12T07:55:29;61.83;;;32.83;;
21392;SDS011;10857;52.228;21.026;2022-11-12T07:58:15;60.20;;;33.40;;
21392;SDS011;10857;52.228;21.026;2022-11-12T08:01:18;68.00;;;35.20;;
21392;SDS011;10857;52.228;21.026;2022-11-12T08:04:07;63.60;;;35.30;;
21392;SDS011;10857;52.228;21.026;2022-11-12T08:06:53;63.40;;;34.87;;
21392;SDS011;10857;52.228;21.026;2022-11-12T08:09:39;65.77;;;36.43;;
21392;SDS011;10857;52.228;21.026;2022-11-12T08:12:25;67.33;;;36.37;;
21392;SDS011;10857;52.228;21.026;2022-11-12T08:15:11;68.33;;;37.90;;
21392;SDS011;10857;52.228;21.026;2022-11-12T08:17:57;66.20;;;37.40;;
21392;SDS011;10857;52.228;21.026;2022-11-12T08:20:43;66.30;;;37.00;;
21392;SDS011;10857;52.228;21.026;2022-11-12T08:23:29;64.77;;;36.43;;
21392;SDS011;10857;52.228;21.026;2022-11-12T08:26:15;66.30;;;37.40;;
21392;SDS011;10857;52.228;21.026;2022-11-12T08:29:02;69.00;;;36.40;;
21392;SDS011;10857;52.228;21.026;2022-11-12T08:31:53;68.83;;;35.63;;
21392;SDS011;10857;52.228;21.026;2022-11-12T08:34:39;67.17;;;35.80;;
21392;SDS011;10857;52.228;21.026;2022-11-12T08:37:25;65.47;;;35.10;;
21392;SDS011;10857;52.228;21.026;2022-11-12T08:40:11;71.17;;;36.63;;
21392;SDS011;10857;52.228;21.026;2022-11-12T08:45:43;67.97;;;35.20;;
21392;SDS011;10857;52.228;21.026;2022-11-12T08:48:29;69.77;;;36.17;;
21392;SDS011;10857;52.228;21.026;2022-11-12T08:51:15;69.50;;;36.77;;
21392;SDS011;10857;52.228;21.026;2022-11-12T08:54:01;64.87;;;33.90;;
21392;SDS011;10857;52.228;21.026;2022-11-12T08:56:47;81.37;;;37.80;;
21392;SDS011;10857;52.228;21.026;2022-11-12T08:59:33;70.80;;;35.93;;
21392;SDS011;10857;52.228;21.026;2022-11-12T17:32:02;48.10;;;26.33;;
21392;SDS011;10857;52.228;21.026;2022-11-12T17:34:48;47.43;;;25.63;;
21392;SDS011;10857;52.228;21.026;2022-11-12T17:37:34;50.73;;;26.03;;
21392;SDS011;10857;52.228;21.026;2022-11-12T17:40:20;45.03;;;25.77;;
21392;SDS011;10857;52.228;21.026;2022-11-12T17:43:06;50.93;;;25.33;;
21392;SDS011;10857;52.228;21.026;2022-11-12T17:45:52;49.20;;;25.60;;
21392;SDS011;10857;52.228;21.026;2022-11-12T17:48:39;49.67;;;26.30;;
21392;SDS011;10857;52.228;21.026;2022-11-12T17:51:26;46.67;;;26.63;;
21392;SDS011;10857;52.228;21.026;2022-11-12T17:54:13;48.97;;;26.17;;
21392;SDS011;10857;52.228;21.026;2022-11-12T17:56:59;45.10;;;26.27;;
21392;SDS011;10857;52.228;21.026;2022-11-12T17:59:45;42.63;;;26.20;;
21392;SDS011;10857;52.228;21.026;2022-11-12T18:02:32;44.73;;;25.63;;
21392;SDS011;10857;52.228;21.026;2022-11-12T18:05:18;44.03;;;25.90;;
21392;SDS011;10857;52.228;21.026;2022-11-12T18:08:04;48.67;;;25.67;;
21392;SDS011;10857;52.228;21.026;2022-11-12T18:10:50;44.37;;;25.80;;
21392;SDS011;10857;52.228;21.026;2022-11-12T18:13:36;48.67;;;25.43;;
21392;SDS011;10857;52.228;21.026;2022-11-12T18:16:24;43.33;;;25.13;;
21392;SDS011;10857;52.228;21.026;2022-11-12T18:19:10;46.30;;;25.40;;
21392;SDS011;10857;52.228;21.026;2022-11-12T18:21:56;45.87;;;25.57;;
21392;SDS011;10857;52.228;21.026;2022-11-12T18:24:44;43.57;;;24.40;;
21392;SDS011;10857;52.228;21.026;2022-11-12T18:27:31;48.97;;;24.60;;
21392;SDS011;10857;52.228;21.026;2022-11-12T18:30:17;48.50;;;27.90;;
21392;SDS011;10857;52.228;21.026;2022-11-12T18:33:04;46.13;;;25.47;;
21392;SDS011;10857;52.228;21.026;2022-11-12T18:38:46;45.07;;;25.90;;
21392;SDS011;10857;52.228;21.026;2022-11-12T18:41:34;46.90;;;27.00;;
21392;SDS011;10857;52.228;21.026;2022-11-12T18:44:20;48.50;;;27.20;;
21392;SDS011;10857;52.228;21.026;2022-11-12T18:47:09;47.13;;;26.47;;
21392;SDS011;10857;52.228;21.026;2022-11-12T18:49:56;50.47;;;27.10;;
21392;SDS011;10857;52.228;21.026;2022-11-12T18:52:42;47.47;;;26.60;;
21392;SDS011;10857;52.228;21.026;2022-11-12T18:55:28;45.93;;;26.50;;
21392;SDS011;10857;52.228;21.026;2022-11-12T18:58:14;52.17;;;27.30;;
21392;SDS011;10857;52.228;21.026;2022-11-12T19:01:07;45.43;;;27.17;;
21392;SDS011;10857;52.228;21.026;2022-11-12T19:03:54;51.80;;;30.95;;
21392;SDS011;10857;52.228;21.026;2022-11-12T19:06:40;48.00;;;28.08;;
21392;SDS011;10857;52.228;21.026;2022-11-12T19:09:26;50.83;;;31.40;;
21392;SDS011;10857;52.228;21.026;2022-11-12T19:12:12;51.37;;;28.07;;
21392;SDS011;10857;52.228;21.026;2022-11-12T19:14:58;49.93;;;28.73;;
21392;SDS011;10857;52.228;21.026;2022-11-12T19:17:44;52.45;;;32.33;;
21392;SDS011;10857;52.228;21.026;2022-11-12T19:20:30;56.00;;;29.73;;
21392;SDS011;10857;52.228;21.026;2022-11-12T19:23:16;54.20;;;29.80;;
21392;SDS011;10857;52.228;21.026;2022-11-12T19:26:02;57.57;;;31.07;;
21392;SDS011;10857;52.228;21.026;2022-11-12T19:28:49;53.23;;;30.60;;
21392;SDS011;10857;52.228;21.026;2022-11-12T19:31:35;59.23;;;31.20;;
21392;SDS011;10857;52.228;21.026;2022-11-12T19:34:21;59.10;;;31.50;;
21392;SDS011;10857;52.228;21.026;2022-11-12T19:37:07;54.90;;;31.30;;
21392;SDS011;10857;52.228;21.026;2022-11-12T19:40:13;57.87;;;31.80;;
21392;SDS011;10857;52.228;21.026;2022-11-12T19:42:59;59.07;;;32.70;;
21392;SDS011;10857;52.228;21.026;2022-11-12T19:45:45;58.30;;;32.23;;
21392;SDS011;10857;52.228;21.026;2022-11-12T19:48:30;57.87;;;32.17;;
21392;SDS011;10857;52.228;21.026;2022-11-12T19:51:17;60.37;;;32.37;;
21392;SDS011;10857;52.228;21.026;2022-11-12T19:54:03;60.80;;;32.57;;
21392;SDS011;10857;52.228;21.026;2022-11-12T19:56:48;62.70;;;33.07;;
21392;SDS011;10857;52.228;21.026;2022-11-12T19:59:34;63.40;;;33.73;;
21392;SDS011;10857;52.228;21.026;2022-11-12T20:02:20;57.37;;;32.13;;
21392;SDS011;10857;52.228;21.026;2022-11-12T20:05:07;62.50;;;34.73;;
21392;SDS011;10857;52.228;21.026;2022-11-12T20:07:52;63.80;;;34.50;;
21392;SDS011;10857;52.228;21.026;2022-11-12T20:10:38;65.40;;;36.37;;
21392;SDS011;10857;52.228;21.026;2022-11-12T20:13:24;66.13;;;36.80;;
21392;SDS011;10857;52.228;21.026;2022-11-12T20:16:11;71.63;;;38.37;;
21392;SDS011;10857;52.228;21.026;2022-11-12T20:18:57;72.63;;;38.27;;
21392;SDS011;10857;52.228;21.026;2022-11-12T20:21:45;79.43;;;41.00;;
21392;SDS011;10857;52.228;21.026;2022-11-12T20:24:31;77.13;;;39.97;;
21392;SDS011;10857;52.228;21.026;2022-11-12T20:27:17;71.53;;;38.97;;
21392;SDS011;10857;52.228;21.026;2022-11-12T20:30:03;73.20;;;41.33;;
21392;SDS011;10857;52.228;21.026;2022-11-12T20:32:50;76.00;;;41.50;;
21392;SDS011;10857;52.228;21.026;2022-11-12T20:35:35;83.73;;;43.67;;
21392;SDS011;10857;52.228;21.026;2022-11-12T20:38:22;82.07;;;44.63;;
21392;SDS011;10857;52.228;21.026;2022-11-12T20:41:13;80.27;;;44.30;;
21392;SDS011;10857;52.228;21.026;2022-11-12T20:43:58;83.43;;;45.27;;
21392;SDS011;10857;52.228;21.026;2022-11-12T20:46:45;85.07;;;46.93;;
21392;SDS011;10857;52.228;21.026;2022-11-12T20:49:32;81.10;;;46.70;;
21392;SDS011;10857;52.228;21.026;2022-11-12T20:52:17;89.73;;;48.07;;
21392;SDS011;10857;52.228;21.026;2022-11-12T20:55:03;86.23;;;48.20;;
21392;SDS011;10857;52.228;21.026;2022-11-12T20:57:49;88.37;;;47.50;;
21392;SDS011;10857;52.228;21.026;2022-11-12T21:00:35;86.90;;;49.03;;
21392;SDS011;10857;52.228;21.026;2022-11-12T21:03:22;90.63;;;48.57;;
21392;SDS011;10857;52.228;21.026;2022-11-12T21:06:10;91.97;;;50.43;;
21392;SDS011;10857;52.228;21.026;2022-11-12T21:08:57;95.83;;;51.20;;
21392;SDS011;10857;52.228;21.026;2022-11-12T21:11:43;100.77;;;52.43;;
21392;SDS011;10857;52.228;21.026;2022-11-12T21:14:29;92.37;;;50.20;;
21392;SDS011;10857;52.228;21.026;2022-11-12T21:17:15;93.50;;;49.97;;
21392;SDS011;10857;52.228;21.026;2022-11-12T21:20:03;100.50;;;53.20;;
21392;SDS011;10857;52.228;21.026;2022-11-12T21:22:49;102.40;;;52.27;;
21392;SDS011;10857;52.228;21.026;2022-11-12T21:25:36;101.97;;;52.23;;
21392;SDS011;10857;52.228;21.026;2022-11-12T21:28:22;100.50;;;54.07;;
21392;SDS011;10857;52.228;21.026;2022-11-12T21:31:12;97.53;;;52.50;;
21392;SDS011;10857;52.228;21.026;2022-11-12T21:33:58;105.13;;;54.03;;
21392;SDS011;10857;52.228;21.026;2022-11-12T21:36:44;101.10;;;54.03;;
21392;SDS011;10857;52.228;21.026;2022-11-12T21:39:30;103.30;;;53.40;;
21392;SDS011;10857;52.228;21.026;2022-11-12T21:42:16;98.73;;;52.03;;
21392;SDS011;10857;52.228;21.026;2022-11-12T21:45:02;98.87;;;52.57;;
21392;SDS011;10857;52.228;21.026;2022-11-12T21:47:48;96.87;;;52.63;;
21392;SDS011;10857;52.228;21.026;2022-11-12T21:50:34;106.37;;;54.23;;
21392;SDS011;10857;52.228;21.026;2022-11-12T21:53:20;103.60;;;53.43;;
21392;SDS011;10857;52.228;21.026;2022-11-12T21:56:08;105.27;;;53.73;;
21392;SDS011;10857;52.228;21.026;2022-11-12T21:58:54;105.87;;;55.17;;
21392;SDS011;10857;52.228;21.026;2022-11-12T22:01:45;100.63;;;52.47;;
21392;SDS011;10857;52.228;21.026;2022-11-12T22:04:31;102.27;;;52.77;;
21392;SDS011;10857;52.228;21.026;2022-11-12T22:07:17;107.50;;;55.13;;
21392;SDS011;10857;52.228;21.026;2022-11-12T22:10:03;102.40;;;53.73;;
21392;SDS011;10857;52.228;21.026;2022-11-12T22:12:49;110.10;;;55.60;;
21392;SDS011;10857;52.228;21.026;2022-11-12T22:15:55;109.17;;;55.33;;
21392;SDS011;10857;52.228;21.026;2022-11-12T22:18:41;110.40;;;55.67;;
21392;SDS011;10857;52.228;21.026;2022-11-12T22:21:27;103.50;;;54.63;;
21392;SDS011;10857;52.228;21.026;2022-11-12T22:24:19;104.50;;;52.00;;
21392;SDS011;10857;52.228;21.026;2022-11-12T22:27:05;106.30;;;52.70;;
21392;SDS011;10857;52.228;21.026;2022-11-12T22:29:51;107.13;;;52.57;;
21392;SDS011;10857;52.228;21.026;2022-11-12T22:32:37;104.63;;;52.13;;
21392;SDS011;10857;52.228;21.026;2022-11-12T22:35:23;104.03;;;51.37;;
21392;SDS011;10857;52.228;21.026;2022-11-12T22:38:09;109.53;;;53.33;;
21392;SDS011;10857;52.228;21.026;2022-11-12T22:40:59;102.73;;;52.93;;
21392;SDS011;10857;52.228;21.026;2022-11-12T22:43:49;109.80;;;52.50;;
21392;SDS011;10857;52.228;21.026;2022-11-12T22:46:35;108.63;;;53.07;;
21392;SDS011;10857;52.228;21.026;2022-11-12T22:49:21;108.33;;;53.07;;
21392;SDS011;10857;52.228;21.026;2022-11-12T22:52:07;115.47;;;53.47;;
21392;SDS011;10857;52.228;21.026;2022-11-12T22:54:53;120.87;;;55.40;;
21392;SDS011;10857;52.228;21.026;2022-11-12T22:57:39;116.00;;;55.43;;
21392;SDS011;10857;52.228;21.026;2022-11-12T23:04:52;118.70;;;55.17;;
21392;SDS011;10857;52.228;21.026;2022-11-12T23:07:38;120.40;;;55.00;;
21392;SDS011;10857;52.228;21.026;2022-11-12T23:10:24;117.73;;;55.23;;
21392;SDS011;10857;52.228;21.026;2022-11-12T23:13:10;111.47;;;53.77;;
21392;SDS011;10857;52.228;21.026;2022-11-12T23:16:15;116.47;;;53.80;;
21392;SDS011;10857;52.228;21.026;2022-11-12T23:19:02;113.53;;;55.30;;
21392;SDS011;10857;52.228;21.026;2022-11-12T23:21:48;107.80;;;50.07;;
21392;SDS011;10857;52.228;21.026;2022-11-12T23:24:33;102.97;;;48.17;;
21392;SDS011;10857;52.228;21.026;2022-11-12T23:27:19;109.67;;;50.30;;
21392;SDS011;10857;52.228;21.026;2022-11-12T23:30:05;105.20;;;48.13;;
21392;SDS011;10857;52.228;21.026;2022-11-12T23:32:51;100.07;;;48.17;;
21392;SDS011;10857;52.228;21.026;2022-11-12T23:35:37;105.30;;;48.10;;
21392;SDS011;10857;52.228;21.026;2022-11-12T23:38:23;112.47;;;49.10;;
21392;SDS011;10857;52.228;21.026;2022-11-12T23:41:11;112.03;;;49.40;;
21392;SDS011;10857;52.228;21.026;2022-11-12T23:43:58;104.37;;;49.07;;
21392;SDS011;10857;52.228;21.026;2022-11-12T23:46:45;101.90;;;47.80;;
21392;SDS011;10857;52.228;21.026;2022-11-12T23:49:31;97.77;;;45.17;;
21392;SDS011;10857;52.228;21.026;2022-11-12T23:52:17;98.93;;;45.20;;
21392;SDS011;10857;52.228;21.026;2022-11-12T23:55:03;90.03;;;42.83;;
21392;SDS011;10857;52.228;21.026;2022-11-12T23:57:51;85.40;;;41.53;;
